Herrera, Argentina
Current Conditions -  °F | °C
As of 9:00 AM on Saturday 25 Oct 2014 (Local Time) from SANT Reporting Station
Clear Clear  
Wind Chill: 81°   Ceiling: Unl
Heat Index: 81°   Visibility: 5mi
Dew Point: 61°   Wind: 5mph
Humidity: 51%   Direction: 320°NW
Pressure: 29.91"   Gusts: NA
Location:  28.48°S, 63.07°W
Report Text: SANT 251200Z 32004KT 8000 NSC 27/16 Q1013
Loading
Personal Weather Stations






























Interactive Weather Map
Tropical Storm Tracking
New forecast layout! Learn more

10-Day Weather Forecast

Advertisements
Track Severe Weather on mobile